Time;durP1;ratioP1;P1;durP2;ratioP2;P2;SDS_P1;SDS_P2;PMS_P1;PMS_P2;Temp;Humidity;BMP_temperature;BMP_pressure;BME280_temperature;BME280_humidity;BME280_pressure;Samples;Min_cycle;Max_cycle;Signal;HPM_P1;HPM_P2
2022/03/30 00:00:45;;;;;;;46.03;26.88;;;9.30;98.00;;;;;;5059634;28;20033;-58
2022/03/30 00:03:11;;;;;;;47.78;25.83;;;9.20;98.10;;;;;;5063649;28;20403;-56
2022/03/30 00:05:37;;;;;;;47.50;27.30;;;9.20;98.60;;;;;;5063255;28;20138;-58
2022/03/30 00:08:02;;;;;;;44.03;24.63;;;9.20;99.40;;;;;;5064393;28;20020;-56
2022/03/30 00:10:28;;;;;;;42.35;25.80;;;9.20;98.70;;;;;;5059483;28;20020;-58
2022/03/30 00:12:55;;;;;;;46.45;26.92;;;9.10;99.20;;;;;;5065264;28;20033;-59
2022/03/30 00:15:21;;;;;;;46.97;27.50;;;9.10;99.70;;;;;;5064228;28;20450;-60
2022/03/30 00:17:46;;;;;;;48.83;27.33;;;9.10;99.60;;;;;;5060387;28;20028;-57
2022/03/30 00:20:12;;;;;;;49.47;27.15;;;9.10;99.80;;;;;;5063609;28;20059;-57
2022/03/30 00:22:41;;;;;;;44.15;26.95;;;9.10;99.50;;;;;;5057835;28;20496;-58
2022/03/30 00:25:08;;;;;;;46.17;26.13;;;9.00;99.50;;;;;;5067237;28;20025;-56
2022/03/30 00:27:34;;;;;;;43.92;26.88;;;9.00;99.80;;;;;;5070045;28;20045;-57
2022/03/30 00:30:00;;;;;;;48.03;26.63;;;9.00;99.80;;;;;;5065478;28;20057;-57
2022/03/30 00:32:26;;;;;;;50.40;27.13;;;8.90;99.90;;;;;;5047610;28;20087;-60
2022/03/30 00:34:51;;;;;;;49.85;26.55;;;8.90;99.70;;;;;;5066173;28;20613;-59
2022/03/30 00:37:17;;;;;;;42.90;24.42;;;8.90;99.90;;;;;;5062114;28;20017;-60
2022/03/30 00:39:42;;;;;;;48.05;24.90;;;8.90;99.80;;;;;;5042797;28;20062;-58
2022/03/30 00:42:16;;;;;;;45.03;26.35;;;8.90;99.40;;;;;;5051608;28;20037;-60
2022/03/30 00:44:41;;;;;;;47.55;26.00;;;8.90;99.40;;;;;;5057769;28;21275;-59
2022/03/30 00:47:21;;;;;;;43.90;26.92;;;8.90;99.60;;;;;;5061766;28;20036;-58
2022/03/30 00:49:47;;;;;;;49.97;27.20;;;8.90;99.80;;;;;;5061673;28;20027;-57
2022/03/30 00:52:13;;;;;;;48.53;26.77;;;8.80;99.70;;;;;;5061464;28;20021;-54
2022/03/30 00:54:41;;;;;;;44.17;23.95;;;8.80;99.40;;;;;;5063741;28;20057;-58
2022/03/30 00:57:09;;;;;;;54.88;27.77;;;8.90;99.40;;;;;;5059876;28;20031;-58
2022/03/30 00:59:35;;;;;;;45.30;25.77;;;8.80;99.50;;;;;;5071946;28;20021;-58
2022/03/30 01:02:01;;;;;;;44.33;25.38;;;8.90;99.30;;;;;;5066219;28;20035;-57
2022/03/30 01:04:28;;;;;;;43.80;26.63;;;8.90;99.40;;;;;;5061607;28;20415;-57
2022/03/30 01:06:54;;;;;;;45.17;26.90;;;8.80;99.50;;;;;;5067792;28;20082;-58
2022/03/30 01:09:20;;;;;;;44.63;27.52;;;8.80;99.50;;;;;;5062420;28;20032;-58
2022/03/30 01:11:47;;;;;;;43.47;24.92;;;8.80;99.50;;;;;;5056205;28;20017;-57
2022/03/30 01:14:13;;;;;;;48.20;26.40;;;8.80;99.40;;;;;;5070157;28;20012;-58
2022/03/30 01:16:41;;;;;;;40.53;24.60;;;8.80;99.60;;;;;;5052443;28;20036;-56
2022/03/30 01:19:09;;;;;;;42.92;24.77;;;8.80;99.50;;;;;;5061964;28;20074;-57
2022/03/30 01:21:36;;;;;;;40.80;24.40;;;8.80;99.60;;;;;;5069585;28;20058;-57
2022/03/30 01:24:03;;;;;;;47.85;25.98;;;8.80;99.80;;;;;;5070602;28;20391;-55
2022/03/30 01:26:28;;;;;;;48.67;25.75;;;8.80;99.90;;;;;;5072596;28;20021;-58
2022/03/30 01:28:55;;;;;;;45.28;27.13;;;8.80;99.90;;;;;;5067721;28;20541;-58
2022/03/30 01:34:05;;;;;;;45.95;25.95;;;8.70;99.90;;;;;;5057872;28;20032;-56
2022/03/30 01:36:31;;;;;;;44.75;24.77;;;8.70;99.90;;;;;;5066793;28;20028;-57
2022/03/30 01:38:56;;;;;;;49.03;25.90;;;8.70;99.90;;;;;;5064803;28;20025;-56
2022/03/30 01:41:22;;;;;;;47.65;26.15;;;8.60;99.90;;;;;;5064250;28;20057;-58
2022/03/30 01:43:47;;;;;;;44.58;26.30;;;8.60;99.90;;;;;;5062924;28;20059;-58
2022/03/30 01:46:13;;;;;;;48.13;25.85;;;8.50;99.90;;;;;;5045921;28;20399;-57
2022/03/30 01:48:39;;;;;;;49.92;26.98;;;8.50;99.90;;;;;;5054823;28;20408;-56
2022/03/30 01:51:04;;;;;;;51.65;27.73;;;8.50;99.90;;;;;;5060249;28;20047;-52
2022/03/30 01:53:30;;;;;;;44.80;26.73;;;8.40;99.90;;;;;;5068978;28;20024;-57
2022/03/30 01:55:56;;;;;;;48.40;26.45;;;8.40;99.90;;;;;;5071984;28;20403;-57
2022/03/30 01:58:21;;;;;;;54.08;28.05;;;8.30;99.90;;;;;;5065273;28;20033;-58
2022/03/30 02:00:47;;;;;;;51.08;27.35;;;8.30;99.90;;;;;;5067741;28;20039;-58
2022/03/30 02:03:12;;;;;;;45.95;27.52;;;8.30;99.90;;;;;;5062615;28;20044;-59
2022/03/30 02:05:39;;;;;;;55.58;28.80;;;8.20;99.90;;;;;;5064079;28;20036;-56
2022/03/30 02:08:04;;;;;;;46.67;27.15;;;8.20;99.90;;;;;;5063344;28;20036;-56
2022/03/30 02:10:31;;;;;;;54.92;27.85;;;8.20;99.90;;;;;;5053508;28;20040;-57
2022/03/30 02:12:58;;;;;;;51.03;28.17;;;8.20;99.90;;;;;;5061505;28;20104;-56
2022/03/30 02:15:24;;;;;;;47.92;26.73;;;8.10;99.90;;;;;;5058888;28;20446;-55
2022/03/30 02:17:50;;;;;;;46.78;26.13;;;8.10;99.90;;;;;;5058777;28;20029;-50
2022/03/30 02:20:15;;;;;;;44.25;25.75;;;8.10;99.90;;;;;;5059321;28;20033;-57
2022/03/30 02:22:41;;;;;;;47.97;27.05;;;8.10;99.90;;;;;;5054594;28;20091;-57
2022/03/30 02:25:08;;;;;;;48.45;27.75;;;8.10;99.90;;;;;;5050919;28;20017;-54
2022/03/30 02:27:34;;;;;;;53.78;27.70;;;8.00;99.90;;;;;;5052282;28;20020;-57
2022/03/30 02:30:00;;;;;;;49.63;27.17;;;8.00;99.90;;;;;;5050509;28;20061;-58
2022/03/30 02:32:26;;;;;;;55.67;27.63;;;8.00;99.90;;;;;;5039333;28;20049;-56
2022/03/30 02:34:52;;;;;;;55.38;28.95;;;8.00;99.90;;;;;;5070550;28;20530;-58
2022/03/30 02:37:18;;;;;;;49.47;27.90;;;7.90;99.90;;;;;;5047794;28;20060;-59
2022/03/30 02:39:44;;;;;;;57.83;27.90;;;7.90;99.90;;;;;;5037919;28;20060;-58
2022/03/30 02:42:10;;;;;;;53.85;26.88;;;7.90;99.90;;;;;;5034924;28;20040;-58
2022/03/30 02:44:37;;;;;;;50.97;28.58;;;7.90;99.90;;;;;;5067202;28;20025;-55
2022/03/30 02:47:03;;;;;;;53.67;29.02;;;7.90;99.90;;;;;;5056005;28;20033;-55
2022/03/30 02:49:29;;;;;;;49.15;27.73;;;7.90;99.90;;;;;;5060629;28;20021;-56
2022/03/30 02:51:55;;;;;;;52.35;28.08;;;7.80;99.90;;;;;;5055600;28;20085;-60
2022/03/30 02:54:21;;;;;;;52.33;28.02;;;7.80;99.90;;;;;;5070779;28;20063;-57
2022/03/30 02:56:47;;;;;;;54.55;29.25;;;7.80;99.90;;;;;;5058860;28;20403;-58
2022/03/30 02:59:13;;;;;;;57.25;28.42;;;7.80;99.90;;;;;;5050255;28;20479;-57
2022/03/30 03:01:38;;;;;;;49.80;27.98;;;7.80;99.90;;;;;;5058928;28;20056;-55
2022/03/30 03:04:04;;;;;;;53.67;29.73;;;7.80;99.90;;;;;;5053285;28;20021;-58
2022/03/30 03:06:30;;;;;;;59.80;29.92;;;7.80;99.90;;;;;;5051341;28;20017;-57
2022/03/30 03:08:57;;;;;;;53.22;28.33;;;7.80;99.90;;;;;;5050085;28;20021;-57
2022/03/30 03:11:23;;;;;;;49.03;29.00;;;7.80;99.90;;;;;;5049698;28;20021;-59
2022/03/30 03:13:49;;;;;;;55.83;28.63;;;7.80;99.90;;;;;;5060064;28;20075;-58
2022/03/30 03:16:15;;;;;;;52.08;27.92;;;7.70;99.90;;;;;;5066099;28;20491;-55
2022/03/30 03:18:40;;;;;;;50.78;27.77;;;7.70;99.90;;;;;;5039080;28;20041;-59
2022/03/30 03:21:06;;;;;;;50.92;28.38;;;7.70;99.90;;;;;;5066230;28;20039;-54
2022/03/30 03:23:31;;;;;;;52.58;28.60;;;7.70;99.90;;;;;;5067941;28;20052;-57
2022/03/30 03:25:57;;;;;;;46.42;26.90;;;7.70;99.90;;;;;;5063513;28;20065;-59
2022/03/30 03:28:23;;;;;;;55.15;30.77;;;7.60;99.90;;;;;;5059917;28;20032;-59
2022/03/30 03:30:48;;;;;;;56.33;28.77;;;7.50;99.90;;;;;;5059180;28;20016;-56
2022/03/30 03:33:15;;;;;;;54.83;30.40;;;7.60;99.90;;;;;;5042281;28;20419;-58
2022/03/30 03:35:41;;;;;;;56.25;28.60;;;7.50;99.90;;;;;;5053040;28;20101;-57
2022/03/30 03:38:08;;;;;;;54.50;30.35;;;7.50;99.90;;;;;;5064594;28;20024;-59
2022/03/30 03:40:35;;;;;;;57.05;30.27;;;7.50;99.90;;;;;;5039044;28;20029;-57
2022/03/30 03:43:01;;;;;;;63.60;32.42;;;7.50;99.90;;;;;;5054147;28;20544;-57
2022/03/30 03:45:27;;;;;;;48.35;28.20;;;7.40;99.90;;;;;;5057179;28;20023;-59
2022/03/30 03:47:53;;;;;;;57.03;29.85;;;7.40;99.90;;;;;;5049910;28;20407;-58
2022/03/30 03:50:19;;;;;;;53.13;29.20;;;7.40;99.90;;;;;;5050009;28;20032;-58
2022/03/30 03:52:45;;;;;;;55.53;29.33;;;7.40;99.90;;;;;;5056635;28;20086;-58
2022/03/30 03:55:11;;;;;;;59.10;30.52;;;7.40;99.90;;;;;;5062966;28;20028;-57
2022/03/30 03:57:41;;;;;;;53.40;29.15;;;7.40;99.90;;;;;;5051179;28;20029;-56
2022/03/30 04:00:09;;;;;;;61.72;31.08;;;7.30;99.90;;;;;;5054258;28;20035;-59
2022/03/30 04:02:34;;;;;;;60.10;30.33;;;7.30;99.90;;;;;;5037923;28;20025;-58
2022/03/30 04:05:00;;;;;;;61.70;31.90;;;7.30;99.90;;;;;;5061182;28;20099;-59
2022/03/30 04:07:26;;;;;;;51.28;28.60;;;7.30;99.90;;;;;;5069072;28;20028;-56
2022/03/30 04:09:51;;;;;;;53.67;29.65;;;7.30;99.90;;;;;;5069622;28;20048;-58
2022/03/30 04:12:17;;;;;;;54.30;29.65;;;7.30;99.90;;;;;;5066585;28;20028;-60
2022/03/30 04:14:42;;;;;;;59.20;28.92;;;7.30;99.90;;;;;;5050395;28;20025;-59
2022/03/30 04:17:08;;;;;;;55.03;29.73;;;7.30;99.90;;;;;;5049823;28;20406;-53
2022/03/30 04:19:34;;;;;;;47.75;28.63;;;7.30;99.90;;;;;;5054668;28;20024;-57
2022/03/30 04:21:59;;;;;;;48.97;29.10;;;7.30;99.90;;;;;;5070229;28;20028;-58
2022/03/30 04:24:25;;;;;;;54.08;27.35;;;7.30;99.90;;;;;;5063934;28;20561;-59
2022/03/30 04:26:50;;;;;;;66.07;30.40;;;7.30;99.90;;;;;;5057605;28;20488;-56
2022/03/30 04:29:16;;;;;;;56.20;28.58;;;7.30;99.90;;;;;;5073447;28;20035;-58
2022/03/30 04:31:41;;;;;;;51.05;27.83;;;7.30;99.90;;;;;;5061291;28;20040;-58
2022/03/30 04:34:07;;;;;;;55.10;26.45;;;7.30;99.90;;;;;;5045056;28;20401;-59
2022/03/30 04:36:32;;;;;;;52.33;27.52;;;7.30;99.90;;;;;;5070409;28;20028;-56
2022/03/30 04:38:58;;;;;;;55.03;28.83;;;7.30;99.90;;;;;;5052323;28;20502;-58
2022/03/30 04:41:23;;;;;;;49.92;26.35;;;7.30;99.90;;;;;;5052978;28;20048;-57
2022/03/30 04:43:49;;;;;;;50.10;27.83;;;7.20;99.90;;;;;;5052943;28;20033;-57
2022/03/30 04:46:15;;;;;;;54.60;27.83;;;7.20;99.90;;;;;;5067187;28;20069;-56
2022/03/30 04:48:41;;;;;;;55.80;28.15;;;7.20;99.90;;;;;;5071111;28;20399;-57
2022/03/30 04:51:07;;;;;;;51.70;27.75;;;7.20;99.90;;;;;;5072153;28;20033;-52
2022/03/30 04:53:32;;;;;;;54.35;29.77;;;7.20;99.90;;;;;;5054170;28;20178;-58
2022/03/30 04:55:58;;;;;;;50.08;27.63;;;7.20;99.90;;;;;;5054143;28;20033;-58
2022/03/30 04:58:24;;;;;;;56.53;29.30;;;7.10;99.90;;;;;;5052413;28;20062;-58
2022/03/30 05:00:49;;;;;;;52.55;28.02;;;7.10;99.90;;;;;;5056921;28;20032;-57
2022/03/30 05:03:16;;;;;;;55.60;30.05;;;7.10;99.90;;;;;;5062230;28;20032;-57
2022/03/30 05:05:41;;;;;;;56.67;30.33;;;7.10;99.90;;;;;;5059757;28;20032;-60
2022/03/30 05:08:08;;;;;;;49.22;28.40;;;7.10;99.90;;;;;;5052743;28;20017;-59
2022/03/30 05:10:33;;;;;;;56.67;30.48;;;7.10;99.90;;;;;;5062942;28;20106;-57
2022/03/30 05:13:00;;;;;;;58.97;29.60;;;7.10;99.90;;;;;;5052217;28;20068;-57
2022/03/30 05:15:28;;;;;;;52.83;28.27;;;7.10;99.90;;;;;;5064379;28;20028;-57
2022/03/30 05:17:54;;;;;;;57.25;29.98;;;7.10;99.90;;;;;;5072081;28;20020;-59
2022/03/30 05:20:20;;;;;;;50.28;29.42;;;7.00;99.90;;;;;;5058167;28;20114;-58
2022/03/30 05:22:45;;;;;;;54.13;28.83;;;7.00;99.90;;;;;;5059630;28;20361;-59
2022/03/30 05:25:12;;;;;;;52.53;30.15;;;7.00;99.90;;;;;;5059219;28;20029;-58
2022/03/30 05:27:39;;;;;;;58.17;30.48;;;7.00;99.90;;;;;;5052290;28;20067;-57
2022/03/30 05:30:05;;;;;;;55.92;31.08;;;7.00;99.90;;;;;;5052878;28;20104;-58
2022/03/30 05:32:31;;;;;;;50.88;27.88;;;7.00;99.90;;;;;;5035474;28;20034;-57
2022/03/30 05:34:57;;;;;;;50.20;29.60;;;7.00;99.90;;;;;;5067594;28;20082;-57
2022/03/30 05:37:24;;;;;;;59.05;30.05;;;7.10;99.90;;;;;;5070413;28;20107;-57
2022/03/30 05:39:50;;;;;;;52.58;28.23;;;7.00;99.90;;;;;;5053112;28;20029;-58
2022/03/30 05:42:16;;;;;;;52.35;28.98;;;7.10;99.90;;;;;;5052033;28;20033;-57
2022/03/30 05:44:42;;;;;;;53.63;29.40;;;7.10;99.90;;;;;;5058484;28;20047;-59
2022/03/30 05:47:09;;;;;;;52.05;27.23;;;7.10;99.90;;;;;;5053998;28;20060;-49
2022/03/30 05:49:35;;;;;;;56.65;27.83;;;7.10;99.90;;;;;;5065367;28;20025;-58
2022/03/30 05:52:02;;;;;;;58.25;28.80;;;7.10;99.90;;;;;;5061660;28;20024;-59
2022/03/30 05:54:27;;;;;;;51.35;28.83;;;7.10;99.90;;;;;;5071218;28;20020;-57
2022/03/30 05:57:02;;;;;;;54.58;29.15;;;7.20;99.90;;;;;;5061846;28;20050;-60
2022/03/30 05:59:29;;;;;;;54.22;26.98;;;7.30;99.90;;;;;;5062830;28;20028;-57
2022/03/30 06:01:55;;;;;;;47.75;26.73;;;7.30;99.90;;;;;;5070905;28;20032;-57
2022/03/30 06:04:20;;;;;;;51.85;27.48;;;7.40;99.90;;;;;;5052277;28;20029;-59
2022/03/30 06:06:46;;;;;;;54.38;29.25;;;7.50;99.90;;;;;;5057176;28;20032;-54
2022/03/30 06:09:12;;;;;;;52.22;28.20;;;7.60;99.90;;;;;;5071209;28;20033;-56
2022/03/30 06:11:37;;;;;;;52.05;27.75;;;7.70;99.90;;;;;;5070690;28;20028;-58
2022/03/30 06:14:03;;;;;;;51.92;28.83;;;7.80;99.90;;;;;;5055657;28;20392;-58
2022/03/30 06:16:29;;;;;;;47.00;26.33;;;7.80;99.90;;;;;;5036139;28;20028;-56
2022/03/30 06:18:55;;;;;;;47.78;25.60;;;7.90;99.90;;;;;;5055597;28;20086;-56
2022/03/30 06:21:21;;;;;;;52.97;27.20;;;8.00;99.90;;;;;;5067946;28;20040;-56
2022/03/30 06:23:47;;;;;;;46.17;25.08;;;8.00;99.90;;;;;;5051447;28;20553;-56
2022/03/30 06:26:12;;;;;;;47.97;24.95;;;8.10;99.90;;;;;;5051007;28;20021;-58
2022/03/30 06:28:38;;;;;;;42.08;26.85;;;8.20;99.90;;;;;;5060479;28;20406;-57
2022/03/30 06:31:04;;;;;;;42.75;25.55;;;8.20;99.90;;;;;;5057804;28;20547;-54
2022/03/30 06:33:30;;;;;;;43.97;24.25;;;8.30;99.90;;;;;;5042178;28;20050;-58
2022/03/30 06:35:56;;;;;;;47.13;23.92;;;8.30;99.90;;;;;;5061478;28;20100;-56
2022/03/30 06:38:21;;;;;;;45.40;24.05;;;8.30;99.90;;;;;;5058683;28;20491;-58
2022/03/30 06:40:47;;;;;;;47.40;24.77;;;8.30;99.90;;;;;;5055210;28;20032;-52
2022/03/30 06:43:13;;;;;;;36.95;22.13;;;8.30;99.90;;;;;;5053268;28;20025;-54
2022/03/30 06:45:39;;;;;;;49.55;23.67;;;8.40;99.90;;;;;;5050056;28;20036;-58
2022/03/30 06:48:05;;;;;;;46.15;24.67;;;8.40;99.90;;;;;;5061197;28;20059;-52
2022/03/30 06:50:32;;;;;;;45.05;24.05;;;8.50;99.90;;;;;;5059024;28;20044;-55
2022/03/30 06:52:58;;;;;;;40.50;23.50;;;8.60;99.90;;;;;;5055486;28;20025;-55
2022/03/30 06:55:24;;;;;;;44.20;23.92;;;8.70;99.90;;;;;;5064754;28;20546;-58
2022/03/30 06:57:50;;;;;;;40.33;23.35;;;8.70;99.90;;;;;;5070027;28;20025;-58
2022/03/30 07:00:17;;;;;;;42.95;23.02;;;8.70;99.90;;;;;;5061235;28;20403;-58
2022/03/30 07:02:43;;;;;;;38.92;23.27;;;8.80;99.90;;;;;;5050469;28;20024;-58
2022/03/30 07:05:09;;;;;;;45.95;24.90;;;8.90;99.90;;;;;;5061755;28;20025;-48
2022/03/30 07:10:19;;;;;;;;;;;9.10;99.90;;;;;;5059166;28;20035;-57
2022/03/30 07:12:50;;;;;;;37.15;22.45;;;9.40;99.90;;;;;;5055281;28;19905;-58
2022/03/30 07:15:17;;;;;;;43.13;22.73;;;9.50;99.90;;;;;;5053603;28;20072;-58
2022/03/30 07:17:50;;;;;;;44.28;24.15;;;9.70;99.90;;;;;;5055714;28;20047;-55
2022/03/30 07:20:18;;;;;;;40.83;22.23;;;9.70;99.90;;;;;;5051785;28;20029;-59
2022/03/30 07:22:45;;;;;;;39.10;23.30;;;9.90;99.90;;;;;;5069863;28;20102;-55
2022/03/30 07:25:12;;;;;;;42.13;23.90;;;10.10;99.90;;;;;;5049805;28;20648;-52
2022/03/30 07:27:39;;;;;;;49.65;24.50;;;10.10;99.90;;;;;;5065392;28;20020;-59
2022/03/30 07:30:06;;;;;;;39.22;24.98;;;10.10;99.90;;;;;;5066597;28;20498;-57
2022/03/30 07:32:31;;;;;;;42.72;24.42;;;10.30;99.90;;;;;;5058851;28;20048;-57
2022/03/30 07:34:57;;;;;;;39.15;24.48;;;10.40;99.90;;;;;;5034831;28;20388;-59
2022/03/30 07:37:23;;;;;;;44.30;24.25;;;10.30;99.90;;;;;;5057173;28;20084;-59
2022/03/30 07:39:48;;;;;;;38.58;23.98;;;10.40;99.90;;;;;;5062089;28;20525;-57
2022/03/30 07:42:14;;;;;;;46.25;26.27;;;10.50;99.90;;;;;;5043204;28;20025;-60
2022/03/30 07:44:40;;;;;;;41.53;23.63;;;10.80;99.90;;;;;;5050423;28;20087;-49
2022/03/30 07:47:05;;;;;;;36.60;23.60;;;11.00;99.90;;;;;;5057012;28;20537;-56
2022/03/30 07:49:31;;;;;;;36.95;22.00;;;11.10;99.90;;;;;;5059355;28;20112;-60
2022/03/30 07:51:56;;;;;;;38.13;23.10;;;11.20;99.90;;;;;;5050290;28;20363;-60
2022/03/30 07:54:22;;;;;;;33.85;22.77;;;11.50;99.30;;;;;;5051193;28;20028;-59
2022/03/30 07:56:48;;;;;;;40.22;23.80;;;11.70;98.90;;;;;;5054310;28;20468;-56
2022/03/30 07:59:13;;;;;;;40.20;23.02;;;11.80;98.50;;;;;;5069846;28;20032;-54
2022/03/30 08:01:40;;;;;;;39.20;22.63;;;11.90;98.10;;;;;;5065753;28;20082;-57
2022/03/30 08:04:06;;;;;;;43.47;23.85;;;11.60;99.00;;;;;;5061078;28;20049;-58
2022/03/30 08:06:32;;;;;;;39.97;23.63;;;11.60;98.80;;;;;;5061864;28;20526;-57
2022/03/30 08:08:57;;;;;;;36.28;23.52;;;11.50;98.40;;;;;;5063488;28;20134;-57
2022/03/30 08:11:23;;;;;;;36.78;22.77;;;11.40;98.90;;;;;;5065828;28;20059;-59
2022/03/30 08:13:48;;;;;;;41.72;23.70;;;11.40;98.50;;;;;;5063431;28;20099;-60
2022/03/30 08:16:14;;;;;;;42.78;25.60;;;11.70;97.50;;;;;;5061859;28;20449;-57
2022/03/30 08:18:39;;;;;;;44.20;24.52;;;11.70;98.20;;;;;;5060751;28;20024;-59
2022/03/30 08:23:49;;;;;;;40.20;24.13;;;12.10;98.10;;;;;;5064600;28;20035;-60
2022/03/30 08:26:15;;;;;;;38.53;25.33;;;12.30;97.90;;;;;;5063791;28;20028;-55
2022/03/30 08:28:40;;;;;;;40.03;24.92;;;13.10;96.20;;;;;;5057759;28;20471;-59
2022/03/30 08:31:06;;;;;;;41.55;26.02;;;13.80;95.30;;;;;;5056282;28;20049;-58
2022/03/30 08:33:31;;;;;;;38.60;22.90;;;14.30;94.90;;;;;;5046915;28;20686;-58
2022/03/30 08:35:57;;;;;;;34.13;22.83;;;15.10;93.10;;;;;;5060302;28;20447;-58
2022/03/30 08:38:22;;;;;;;32.17;23.58;;;15.60;91.20;;;;;;5062364;28;20032;-59
2022/03/30 08:40:48;;;;;;;38.60;22.13;;;15.90;89.20;;;;;;5055726;28;20053;-58
2022/03/30 08:43:14;;;;;;;33.40;23.20;;;16.00;89.60;;;;;;5052981;28;20075;-61
2022/03/30 08:45:41;;;;;;;34.75;21.70;;;16.20;89.80;;;;;;5063159;28;20539;-58
2022/03/30 08:48:07;;;;;;;28.17;20.35;;;16.60;84.30;;;;;;5053623;28;20105;-60
2022/03/30 08:50:33;;;;;;;30.85;19.52;;;17.00;81.80;;;;;;5057062;28;20024;-57
2022/03/30 08:53:05;;;;;;;30.90;20.60;;;17.00;81.70;;;;;;5035389;28;20036;-59
2022/03/30 08:55:31;;;;;;;37.13;24.42;;;16.60;80.80;;;;;;5053143;28;20029;-60
2022/03/30 08:57:57;;;;;;;33.30;22.05;;;16.50;83.30;;;;;;5072813;28;20032;-61
2022/03/30 09:00:22;;;;;;;35.97;21.77;;;16.20;81.70;;;;;;5063889;28;20041;-53
2022/03/30 09:03:00;;;;;;;32.47;21.95;;;16.00;82.10;;;;;;5056111;28;20032;-59
2022/03/30 09:05:28;;;;;;;29.75;20.30;;;16.90;81.20;;;;;;5059503;28;20058;-60
2022/03/30 09:08:06;;;;;;;30.25;18.70;;;17.00;78.10;;;;;;5072474;28;20071;-60
2022/03/30 09:10:32;;;;;;;33.28;19.77;;;17.60;75.80;;;;;;5054217;28;20063;-60
2022/03/30 09:12:58;;;;;;;30.45;17.85;;;17.20;75.80;;;;;;5063553;28;20491;-60
2022/03/30 09:15:24;;;;;;;31.45;18.23;;;16.50;75.10;;;;;;5058863;28;20070;-61
2022/03/30 09:17:56;;;;;;;27.05;16.73;;;16.30;75.50;;;;;;5055703;28;20448;-60
2022/03/30 09:20:23;;;;;;;32.40;16.48;;;16.50;74.40;;;;;;5063463;28;20518;-60
2022/03/30 09:22:53;;;;;;;25.65;16.55;;;16.70;73.30;;;;;;5064668;28;20017;-59
2022/03/30 09:25:22;;;;;;;26.67;15.40;;;16.50;71.10;;;;;;5064451;28;20031;-60
2022/03/30 09:27:48;;;;;;;29.27;15.50;;;16.60;69.50;;;;;;5070044;28;20025;-60
2022/03/30 09:30:15;;;;;;;30.38;17.08;;;16.50;71.40;;;;;;5060915;28;20146;-61
2022/03/30 09:32:43;;;;;;;28.45;16.05;;;16.80;70.30;;;;;;5065963;28;20116;-60
2022/03/30 09:35:25;;;;;;;24.10;14.88;;;16.20;70.90;;;;;;5022747;28;20134;-59
2022/03/30 09:38:08;;;;;;;26.77;14.50;;;16.70;71.40;;;;;;5062873;28;20416;-61
2022/03/30 09:40:41;;;;;;;25.95;16.15;;;17.10;69.70;;;;;;5060645;28;20021;-60
2022/03/30 09:43:27;;;;;;;34.03;15.88;;;17.00;69.60;;;;;;5053224;28;20120;-61
2022/03/30 09:46:05;;;;;;;30.67;15.90;;;17.00;69.00;;;;;;5053084;28;20409;-60
2022/03/30 09:48:34;;;;;;;34.95;18.23;;;17.30;69.10;;;;;;5058878;28;20025;-57
2022/03/30 09:51:02;;;;;;;33.25;16.10;;;16.70;70.80;;;;;;5052135;28;20064;-59
2022/03/30 09:53:30;;;;;;;28.65;17.05;;;16.80;70.10;;;;;;5053895;28;20020;-59
2022/03/30 09:56:05;;;;;;;30.05;16.17;;;16.80;70.20;;;;;;5057298;28;20135;-60
2022/03/30 09:58:33;;;;;;;26.42;16.83;;;16.90;70.80;;;;;;5058887;28;20085;-57
2022/03/30 10:01:23;;;;;;;27.17;15.73;;;16.70;68.50;;;;;;5060521;28;20219;-58
2022/03/30 10:03:59;;;;;;;26.00;14.38;;;16.10;68.20;;;;;;5045960;28;20037;-60
2022/03/30 10:06:27;;;;;;;26.67;14.88;;;16.10;67.60;;;;;;5059331;28;20095;-59
2022/03/30 10:08:55;;;;;;;22.10;13.80;;;15.70;69.20;;;;;;5054822;28;20025;-58
2022/03/30 10:11:22;;;;;;;26.85;14.77;;;15.70;68.90;;;;;;5058433;28;20491;-54
2022/03/30 10:13:51;;;;;;;28.08;16.13;;;15.60;67.90;;;;;;5052480;28;20060;-60
2022/03/30 10:16:18;;;;;;;27.08;16.23;;;15.60;68.20;;;;;;5052207;28;20037;-59
2022/03/30 10:18:44;;;;;;;24.85;13.95;;;15.30;70.40;;;;;;5053739;28;20079;-58
2022/03/30 10:21:15;;;;;;;23.83;14.75;;;15.00;68.40;;;;;;5054213;28;20024;-52
2022/03/30 10:24:02;;;;;;;25.48;14.27;;;14.80;71.80;;;;;;5057070;28;20029;-60
2022/03/30 10:26:32;;;;;;;25.35;15.50;;;15.00;70.70;;;;;;5052431;28;20025;-57
2022/03/30 10:29:05;;;;;;;26.15;15.30;;;15.20;69.10;;;;;;5062526;28;20016;-57
2022/03/30 10:31:31;;;;;;;31.02;14.85;;;14.90;69.10;;;;;;5055990;28;20052;-55
2022/03/30 10:33:57;;;;;;;22.70;13.43;;;14.70;69.40;;;;;;5038106;28;20044;-54
2022/03/30 10:36:30;;;;;;;25.55;14.35;;;14.80;69.20;;;;;;5065929;28;20028;-54
2022/03/30 10:39:14;;;;;;;22.25;13.30;;;14.50;69.10;;;;;;5057473;28;20217;-58
2022/03/30 10:41:53;;;;;;;26.98;15.00;;;14.60;70.50;;;;;;5064798;28;20027;-60
2022/03/30 10:44:46;;;;;;;23.67;13.73;;;14.80;70.20;;;;;;5056726;28;20028;-57
2022/03/30 10:47:14;;;;;;;30.25;14.80;;;14.60;70.00;;;;;;5060693;28;20031;-51
2022/03/30 10:49:50;;;;;;;22.90;13.43;;;14.50;69.70;;;;;;5054380;28;20021;-57
2022/03/30 10:52:44;;;;;;;35.17;15.10;;;14.70;70.00;;;;;;5058631;28;20569;-57
2022/03/30 10:55:12;;;;;;;24.35;13.75;;;14.80;69.70;;;;;;5061303;28;20478;-54
2022/03/30 10:58:02;;;;;;;27.98;13.70;;;14.70;69.20;;;;;;5060818;28;20684;-56
2022/03/30 11:00:39;;;;;;;27.27;14.77;;;14.50;70.10;;;;;;5060482;28;20028;-58
2022/03/30 11:03:20;;;;;;;29.33;14.43;;;14.50;69.40;;;;;;5059778;28;20035;-57
2022/03/30 11:06:06;;;;;;;28.45;14.30;;;14.40;71.10;;;;;;5052224;28;20029;-60
2022/03/30 11:08:34;;;;;;;29.73;14.27;;;14.50;69.90;;;;;;5050634;28;20035;-60
2022/03/30 11:11:04;;;;;;;31.38;14.30;;;14.40;70.50;;;;;;5060814;28;20067;-60
2022/03/30 11:13:30;;;;;;;26.70;14.50;;;14.40;70.50;;;;;;5054462;28;20383;-57
2022/03/30 11:16:01;;;;;;;27.17;13.80;;;14.40;71.60;;;;;;5052287;28;20484;-59
2022/03/30 11:18:28;;;;;;;26.65;13.35;;;14.50;73.00;;;;;;5059077;28;20066;-56
2022/03/30 11:21:08;;;;;;;23.90;12.60;;;14.60;71.50;;;;;;5067349;28;20040;-56
2022/03/30 11:23:35;;;;;;;24.23;12.35;;;14.50;71.20;;;;;;5066199;28;20075;-59
2022/03/30 11:26:00;;;;;;;24.35;12.43;;;14.50;70.90;;;;;;5065556;28;20037;-58
2022/03/30 11:28:37;;;;;;;23.05;12.50;;;14.20;71.10;;;;;;5065797;28;20021;-56
2022/03/30 11:31:05;;;;;;;26.67;14.25;;;14.30;71.20;;;;;;5059302;28;20017;-58
2022/03/30 11:33:34;;;;;;;25.88;13.80;;;14.30;70.80;;;;;;5062198;28;20455;-56
2022/03/30 11:36:02;;;;;;;22.13;13.32;;;14.20;71.90;;;;;;5065398;28;20025;-54
2022/03/30 11:38:39;;;;;;;26.23;14.50;;;14.10;71.40;;;;;;5064491;28;20059;-58
2022/03/30 11:41:09;;;;;;;27.42;13.07;;;14.30;71.80;;;;;;5056053;28;20033;-60
2022/03/30 11:45:12;;;;;;;27.52;14.32;;;14.30;71.60;;;;;;5053738;28;20116;-56
2022/03/30 11:46:28;;;;;;;24.02;13.07;;;14.10;72.40;;;;;;5062315;28;20499;-54
2022/03/30 11:49:02;;;;;;;24.10;13.90;;;14.10;72.90;;;;;;5069400;28;20082;-57
2022/03/30 11:51:28;;;;;;;24.13;12.90;;;14.20;72.80;;;;;;5056313;28;20063;-56
2022/03/30 11:54:18;;;;;;;21.88;12.65;;;14.30;71.30;;;;;;5057495;28;20438;-57
2022/03/30 11:56:45;;;;;;;25.50;13.57;;;14.20;70.20;;;;;;5037913;28;20032;-55
2022/03/30 11:59:11;;;;;;;26.15;14.20;;;14.20;71.60;;;;;;5044246;28;20549;-53
2022/03/30 12:01:37;;;;;;;29.13;12.90;;;13.90;71.90;;;;;;5066193;28;20029;-57
2022/03/30 12:04:04;;;;;;;28.52;13.77;;;13.70;72.70;;;;;;5059817;28;20025;-56
2022/03/30 12:06:29;;;;;;;22.83;13.38;;;13.50;72.10;;;;;;5059173;28;20028;-51
2022/03/30 12:08:57;;;;;;;17.42;10.80;;;13.40;73.30;;;;;;5065733;28;20021;-56
2022/03/30 12:11:23;;;;;;;17.45;10.07;;;13.70;72.20;;;;;;5064434;28;20025;-58
2022/03/30 12:13:53;;;;;;;22.40;11.57;;;13.90;69.60;;;;;;5053896;28;20028;-57
2022/03/30 12:16:20;;;;;;;22.00;12.77;;;14.00;71.10;;;;;;5062956;28;20024;-60
2022/03/30 12:18:48;;;;;;;22.38;11.35;;;14.20;71.00;;;;;;5068106;28;20013;-58
2022/03/30 12:21:21;;;;;;;28.70;10.80;;;14.40;71.90;;;;;;5072066;28;20021;-57
2022/03/30 12:23:58;;;;;;;23.45;11.75;;;14.30;68.90;;;;;;5059065;28;20029;-60
2022/03/30 12:26:24;;;;;;;18.98;11.10;;;14.00;67.90;;;;;;5062238;28;20211;-61
2022/03/30 12:28:50;;;;;;;18.20;10.27;;;13.90;69.80;;;;;;5057597;28;20029;-57
2022/03/30 12:31:16;;;;;;;19.88;11.50;;;13.70;70.00;;;;;;5054209;28;20029;-55
2022/03/30 12:33:47;;;;;;;21.25;11.18;;;13.80;70.10;;;;;;5056832;28;20590;-60
2022/03/30 12:36:20;;;;;;;20.45;11.35;;;13.70;70.10;;;;;;5071383;28;20089;-59
2022/03/30 12:38:49;;;;;;;20.30;9.52;;;13.70;69.50;;;;;;5064741;28;20029;-56
2022/03/30 12:41:27;;;;;;;14.68;7.85;;;13.70;66.80;;;;;;5054713;28;20381;-58
2022/03/30 12:44:00;;;;;;;13.10;8.45;;;13.90;66.90;;;;;;5052737;28;20081;-59